Time;durP1;ratioP1;P1;durP2;ratioP2;P2;SDS_P1;SDS_P2;PMS_P1;PMS_P2;Temp;Humidity;BMP_temperature;BMP_pressure;BME280_temperature;BME280_humidity;BME280_pressure;Samples;Min_cycle;Max_cycle;Signal;HPM_P1;HPM_P2
2022/02/01 00:01:15;;;;;;;64.60;23.10;;;;;;;0.47;80.04;99508.71;106356;1271;22562;-81
2022/02/01 00:03:47;;;;;;;71.70;25.10;;;;;;;0.40;80.46;99516.64;106702;1271;24204;-76
2022/02/01 00:06:20;;;;;;;66.70;24.40;;;;;;;0.36;80.85;99519.79;106514;1270;22683;-80
2022/02/01 00:08:56;;;;;;;66.80;24.00;;;;;;;0.35;81.03;99522.73;106464;1271;26703;-80
2022/02/01 00:11:35;;;;;;;60.60;18.90;;;;;;;0.34;81.71;99527.77;106448;1271;26548;-80
2022/02/01 00:14:12;;;;;;;66.10;21.80;;;;;;;0.32;81.87;99535.73;106406;1262;90362;-58
2022/02/01 00:17:02;;;;;;;66.40;22.60;;;;;;;0.32;81.80;99534.87;105608;1271;22709;-58
2022/02/01 00:33:49;;;;;;;66.60;23.50;;;;;;;0.31;82.26;99573.23;105244;1284;25387;-60
2022/02/01 00:36:27;;;;;;;63.80;21.90;;;;;;;0.31;82.24;99578.42;104730;1284;25517;-59
2022/02/01 00:39:00;;;;;;;64.30;21.70;;;;;;;0.31;82.25;99589.31;104706;1284;24322;-59
2022/02/01 00:41:31;;;;;;;58.00;21.70;;;;;;;0.32;82.00;99590.80;104660;1282;22571;-59
2022/02/01 00:44:01;;;;;;;61.90;22.40;;;;;;;0.35;81.98;99594.98;104730;1284;22575;-58
2022/02/01 00:46:31;;;;;;;65.50;22.40;;;;;;;0.38;81.75;99596.48;104730;1284;22536;-60
2022/02/01 00:48:59;;;;;;;68.40;22.50;;;;;;;0.41;81.80;99595.23;104879;1284;22557;-59
2022/02/01 00:51:27;;;;;;;64.00;23.30;;;;;;;0.45;81.67;99598.83;104715;1284;25587;-57
2022/02/01 00:53:56;;;;;;;61.70;20.70;;;;;;;0.48;81.68;99601.48;104722;1282;22922;-59
2022/02/01 00:56:25;;;;;;;62.50;19.40;;;;;;;0.50;81.71;99607.10;104706;1284;25721;-59
2022/02/01 00:58:54;;;;;;;54.40;18.90;;;;;;;0.51;81.65;99605.50;105080;1279;24412;-59
2022/02/01 01:01:23;;;;;;;52.60;16.70;;;;;;;0.52;81.62;99604.10;105323;1277;24509;-60
2022/02/01 01:03:52;;;;;;;53.90;16.70;;;;;;;0.53;81.46;99608.61;105435;1277;24304;-60
2022/02/01 01:06:21;;;;;;;52.00;15.90;;;;;;;0.54;81.46;99609.77;105370;1277;24272;-60
2022/02/01 01:08:50;;;;;;;40.80;15.10;;;;;;;0.55;81.36;99613.35;105369;1277;22563;-59
2022/02/01 01:11:18;;;;;;;45.60;15.50;;;;;;;0.55;81.40;99619.95;105473;1273;27480;-59
2022/02/01 01:14:27;;;;;;;47.10;15.70;;;;;;;0.55;81.45;99621.73;105699;1273;22583;-58
2022/02/01 01:17:28;;;;;;;45.60;13.80;;;;;;;0.55;81.45;99626.60;105638;1273;24241;-58
2022/02/01 01:45:05;;;;;;;52.60;17.60;;;;;;;0.58;81.91;99633.30;105288;1276;24467;-59
2022/02/01 01:53:15;;;;;;;55.70;18.50;;;;;;;0.54;82.20;99645.79;105387;1277;24432;-60
2022/02/01 01:55:46;;;;;;;61.00;18.60;;;;;;;0.53;82.21;99644.92;105404;1277;25388;-59
2022/02/01 01:58:16;;;;;;;59.40;18.90;;;;;;;0.54;82.12;99637.21;105409;1277;25689;-59
2022/02/01 02:03:30;;;;;;;53.60;18.80;;;;;;;0.56;82.21;99646.39;104804;1282;22576;-60
2022/02/01 02:05:58;;;;;;;57.70;16.80;;;;;;;0.55;82.18;99652.04;104802;1281;25517;-60
2022/02/01 02:08:28;;;;;;;57.80;19.50;;;;;;;0.52;82.07;99657.83;104879;1282;25324;-58
2022/02/01 02:11:02;;;;;;;53.50;18.30;;;;;;;0.50;82.11;99656.30;105017;1281;22583;-59
2022/02/01 02:16:21;;;;;;;54.70;18.60;;;;;;;0.47;82.15;99643.17;105329;1276;25696;-58
2022/02/01 02:18:50;;;;;;;57.50;16.10;;;;;;;0.47;82.13;99641.30;105325;1276;22565;-58
2022/02/01 02:21:21;;;;;;;59.70;17.20;;;;;;;0.47;82.18;99654.80;105384;1277;22815;-59
2022/02/01 02:23:49;;;;;;;61.80;17.70;;;;;;;0.47;82.31;99660.77;105331;1277;23488;-59
2022/02/01 02:26:19;;;;;;;49.90;16.60;;;;;;;0.46;82.24;99657.55;105338;1277;27669;-59
2022/02/01 02:28:48;;;;;;;49.40;16.00;;;;;;;0.47;82.19;99654.34;105489;1277;24336;-57
2022/02/01 02:31:18;;;;;;;42.10;12.50;;;;;;;0.47;82.28;99653.63;105529;1278;22671;-57
2022/02/01 02:33:48;;;;;;;39.00;12.50;;;;;;;0.45;82.29;99659.46;105444;1277;22543;-56
2022/02/01 02:36:18;;;;;;;40.10;9.20;;;;;;;0.45;82.25;99664.66;105343;1277;24395;-57
2022/02/01 02:38:52;;;;;;;35.80;11.80;;;;;;;0.43;82.46;99670.57;105344;1277;26753;-59
2022/02/01 02:41:34;;;;;;;39.90;10.90;;;;;;;0.42;82.25;99672.41;105429;1273;22548;-58
2022/02/01 02:46:53;;;;;;;39.00;10.00;;;;;;;0.41;82.32;99668.51;105571;1273;22536;-59
2022/02/01 02:49:23;;;;;;;31.60;8.30;;;;;;;0.40;82.34;99666.09;105787;1273;25414;-58
2022/02/01 02:51:53;;;;;;;33.20;7.60;;;;;;;0.40;82.34;99664.13;105804;1273;22705;-59
2022/02/01 02:54:23;;;;;;;35.00;8.80;;;;;;;0.39;82.32;99661.01;105637;1273;22578;-57
2022/02/01 02:56:53;;;;;;;40.30;10.30;;;;;;;0.39;82.33;99659.05;105628;1273;25353;-59
2022/02/01 02:59:23;;;;;;;38.70;9.70;;;;;;;0.40;82.29;99662.41;105672;1273;22579;-58
2022/02/01 03:01:53;;;;;;;31.90;8.70;;;;;;;0.40;82.34;99657.22;105665;1273;22569;-58
2022/02/01 03:04:22;;;;;;;28.70;8.10;;;;;;;0.39;82.38;99662.73;105645;1273;24554;-61
2022/02/01 03:06:52;;;;;;;30.00;8.40;;;;;;;0.39;82.34;99659.30;105757;1273;24512;-57
2022/02/01 03:09:22;;;;;;;35.80;10.20;;;;;;;0.39;82.40;99657.96;105757;1273;25414;-59
2022/02/01 03:11:53;;;;;;;28.40;9.00;;;;;;;0.39;82.49;99663.14;106326;1273;25396;-57
2022/02/01 03:14:25;;;;;;;30.10;9.40;;;;;;;0.39;82.58;99662.13;105660;1273;22668;-61
2022/02/01 03:17:06;;;;;;;35.10;9.30;;;;;;;0.39;82.46;99664.80;105723;1273;22749;-58
2022/02/01 03:19:49;;;;;;;35.20;9.60;;;;;;;0.39;82.66;99659.69;105624;1271;22538;-57
2022/02/01 03:22:19;;;;;;;30.60;9.90;;;;;;;0.38;82.66;99660.23;105726;1273;23557;-58
2022/02/01 03:24:48;;;;;;;35.40;8.20;;;;;;;0.38;82.65;99665.18;105803;1273;22557;-58
2022/02/01 03:27:18;;;;;;;37.10;9.00;;;;;;;0.38;82.74;99668.96;105672;1273;24438;-60
2022/02/01 03:29:47;;;;;;;31.00;9.10;;;;;;;0.37;82.79;99668.12;105584;1273;22646;-57
2022/02/01 03:32:17;;;;;;;36.60;9.90;;;;;;;0.36;82.75;99670.79;105656;1271;25400;-58
2022/02/01 03:34:48;;;;;;;35.40;8.20;;;;;;;0.36;82.89;99674.02;105786;1271;24306;-59
2022/02/01 03:37:16;;;;;;;36.20;9.70;;;;;;;0.35;82.88;99671.77;105790;1271;22622;-58
2022/02/01 03:39:45;;;;;;;39.70;10.10;;;;;;;0.35;83.01;99672.30;105942;1271;25531;-58
2022/02/01 03:42:14;;;;;;;41.10;10.60;;;;;;;0.34;83.12;99673.42;105685;1273;22632;-60
2022/02/01 03:44:42;;;;;;;38.90;10.60;;;;;;;0.34;83.27;99677.11;106017;1272;22697;-59
2022/02/01 03:47:11;;;;;;;35.90;9.70;;;;;;;0.32;83.45;99678.17;105656;1271;26219;-57
2022/02/01 03:49:41;;;;;;;37.50;10.70;;;;;;;0.32;83.30;99679.75;105816;1273;24865;-58
2022/02/01 03:52:12;;;;;;;37.30;11.20;;;;;;;0.32;83.32;99680.14;105645;1273;22713;-58
2022/02/01 03:54:40;;;;;;;40.10;9.90;;;;;;;0.32;83.41;99683.20;105718;1273;25386;-58
2022/02/01 03:57:12;;;;;;;38.80;11.70;;;;;;;0.31;83.59;99691.47;105585;1272;22617;-59
2022/02/01 03:59:44;;;;;;;35.00;10.20;;;;;;;0.30;83.47;99694.69;105825;1273;25477;-58
2022/02/01 04:02:14;;;;;;;35.00;11.00;;;;;;;0.30;83.60;99695.71;105674;1273;22540;-59
2022/02/01 04:04:42;;;;;;;45.00;14.10;;;;;;;0.29;83.66;99702.26;105696;1273;22607;-59
2022/02/01 04:07:10;;;;;;;49.80;13.30;;;;;;;0.29;83.60;99701.77;105556;1273;22570;-59
2022/02/01 04:09:39;;;;;;;42.90;12.30;;;;;;;0.30;83.57;99700.50;105641;1273;24278;-58
2022/02/01 04:12:09;;;;;;;47.40;12.50;;;;;;;0.30;83.59;99696.81;105577;1271;22550;-58
2022/02/01 04:14:37;;;;;;;48.50;13.20;;;;;;;0.31;83.73;99700.02;105598;1273;24441;-59
2022/02/01 04:17:10;;;;;;;53.40;13.30;;;;;;;0.31;83.71;99708.77;105586;1271;25399;-58
2022/02/01 04:19:39;;;;;;;46.80;13.40;;;;;;;0.32;83.76;99708.37;105711;1273;22605;-57
2022/02/01 04:22:08;;;;;;;44.20;12.70;;;;;;;0.33;83.86;99711.34;105706;1272;25714;-58
2022/02/01 04:24:41;;;;;;;47.90;12.40;;;;;;;0.33;83.84;99714.85;105652;1273;25053;-59
2022/02/01 04:27:16;;;;;;;53.40;14.70;;;;;;;0.33;83.70;99716.19;105677;1273;25545;-59
2022/02/01 04:29:52;;;;;;;49.80;13.90;;;;;;;0.34;83.72;99717.75;105563;1273;22561;-56
2022/02/01 04:32:20;;;;;;;45.10;12.90;;;;;;;0.34;83.66;99719.87;105638;1271;22535;-59
2022/02/01 04:34:56;;;;;;;43.50;13.60;;;;;;;0.34;83.58;99719.86;105613;1273;22765;-59
2022/02/01 04:37:26;;;;;;;62.40;14.70;;;;;;;0.35;83.65;99720.23;105569;1273;23101;-60
2022/02/01 04:39:54;;;;;;;43.40;13.40;;;;;;;0.35;83.53;99715.39;105675;1273;24389;-59
2022/02/01 04:42:23;;;;;;;40.30;12.80;;;;;;;0.34;83.57;99714.38;105536;1272;25328;-58
2022/02/01 04:44:54;;;;;;;45.90;13.30;;;;;;;0.33;83.48;99716.83;105702;1272;22558;-59
2022/02/01 04:47:28;;;;;;;47.40;14.20;;;;;;;0.32;83.38;99724.38;105657;1273;23301;-57
2022/02/01 04:49:57;;;;;;;58.90;16.20;;;;;;;0.31;83.29;99724.86;105599;1273;22688;-56
2022/02/01 04:52:27;;;;;;;54.70;17.50;;;;;;;0.31;83.37;99731.52;105556;1273;26486;-57
2022/02/01 04:54:56;;;;;;;49.10;13.70;;;;;;;0.30;83.35;99733.21;105643;1273;25282;-58
2022/02/01 04:57:24;;;;;;;46.90;13.20;;;;;;;0.29;83.30;99738.64;105816;1273;22551;-56
2022/02/01 04:59:53;;;;;;;44.40;13.60;;;;;;;0.28;83.28;99748.86;105688;1273;25353;-58
2022/02/01 05:02:23;;;;;;;53.40;13.50;;;;;;;0.28;83.18;99753.73;105639;1272;22583;-58
2022/02/01 05:04:52;;;;;;;47.50;12.50;;;;;;;0.28;83.15;99746.35;105626;1273;23024;-58
2022/02/01 05:07:22;;;;;;;43.20;11.50;;;;;;;0.29;83.16;99747.83;105697;1272;24263;-55
2022/02/01 05:09:51;;;;;;;40.60;10.40;;;;;;;0.29;83.24;99745.31;105705;1273;22618;-57
2022/02/01 05:12:20;;;;;;;37.90;11.00;;;;;;;0.28;83.24;99746.81;105810;1272;22620;-57
2022/02/01 05:14:49;;;;;;;36.50;9.60;;;;;;;0.29;83.26;99753.31;105802;1273;24372;-56
2022/02/01 05:17:19;;;;;;;34.60;9.60;;;;;;;0.28;83.15;99749.63;105572;1273;22535;-56
2022/02/01 05:19:54;;;;;;;37.40;10.50;;;;;;;0.28;83.21;99751.30;105979;1273;23499;-55
2022/02/01 05:22:25;;;;;;;38.60;10.80;;;;;;;0.28;83.15;99753.73;105644;1273;22570;-56
2022/02/01 05:24:55;;;;;;;33.00;9.00;;;;;;;0.28;83.23;99750.04;105564;1273;22540;-54
2022/02/01 05:27:28;;;;;;;37.60;10.10;;;;;;;0.28;83.29;99756.14;105551;1273;25241;-55
2022/02/01 05:29:57;;;;;;;36.50;9.40;;;;;;;0.29;83.38;99752.92;105571;1273;23219;-56
2022/02/01 05:32:27;;;;;;;35.80;10.40;;;;;;;0.31;83.34;99748.02;106656;1273;24492;-57
2022/02/01 05:34:56;;;;;;;28.60;8.80;;;;;;;0.32;83.31;99744.62;105719;1273;22572;-58
2022/02/01 05:37:25;;;;;;;41.10;10.30;;;;;;;0.33;83.32;99741.70;105665;1273;25064;-58
2022/02/01 05:39:53;;;;;;;46.00;10.70;;;;;;;0.33;83.32;99744.90;105700;1272;24325;-58
2022/02/01 05:42:27;;;;;;;38.20;10.40;;;;;;;0.34;83.40;99742.70;105746;1273;22558;-58
2022/02/01 05:44:56;;;;;;;46.10;10.80;;;;;;;0.34;83.37;99740.89;105642;1273;24397;-55
2022/02/01 05:47:25;;;;;;;39.60;9.00;;;;;;;0.34;83.33;99736.41;105630;1273;22550;-58
2022/02/01 05:49:54;;;;;;;37.00;10.20;;;;;;;0.35;83.55;99736.40;106188;1273;24267;-57
2022/02/01 05:52:22;;;;;;;38.20;9.00;;;;;;;0.35;83.53;99737.27;105729;1273;22592;-57
2022/02/01 05:54:51;;;;;;;40.70;10.40;;;;;;;0.33;83.65;99739.17;105727;1273;22541;-56
2022/02/01 05:57:20;;;;;;;39.50;11.10;;;;;;;0.33;83.62;99745.09;105651;1273;22563;-57
2022/02/01 05:59:49;;;;;;;39.60;11.90;;;;;;;0.32;83.72;99743.27;105771;1273;22550;-54
2022/02/01 06:02:18;;;;;;;41.10;11.30;;;;;;;0.32;83.69;99743.45;105666;1272;22557;-54
2022/02/01 06:04:47;;;;;;;44.10;11.00;;;;;;;0.32;83.90;99746.89;105615;1273;24284;-56
2022/02/01 06:07:16;;;;;;;36.50;10.80;;;;;;;0.31;83.76;99748.33;105562;1273;25500;-57
2022/02/01 06:09:44;;;;;;;30.00;10.60;;;;;;;0.31;83.83;99752.31;105679;1273;25687;-57
2022/02/01 06:12:12;;;;;;;42.00;10.80;;;;;;;0.31;83.81;99748.88;105575;1273;24149;-58
2022/02/01 06:14:42;;;;;;;31.30;8.20;;;;;;;0.31;83.83;99750.90;105783;1273;22563;-55
2022/02/01 06:17:11;;;;;;;32.50;9.70;;;;;;;0.29;83.85;99755.34;105664;1273;22705;-56
2022/02/01 06:19:40;;;;;;;30.80;7.60;;;;;;;0.26;83.60;99762.22;105940;1273;25001;-56
2022/02/01 06:22:09;;;;;;;41.10;9.40;;;;;;;0.24;83.46;99764.70;105739;1273;25586;-55
2022/02/01 06:24:38;;;;;;;42.90;8.90;;;;;;;0.22;83.64;99768.89;105651;1273;22531;-56
2022/02/01 06:27:07;;;;;;;37.60;9.80;;;;;;;0.22;83.69;99770.86;105683;1273;24254;-56
2022/02/01 06:29:35;;;;;;;34.60;10.80;;;;;;;0.21;83.90;99776.45;105778;1271;22725;-59
2022/02/01 06:32:05;;;;;;;40.80;10.70;;;;;;;0.20;83.93;99786.50;105582;1273;22548;-57
2022/02/01 06:34:34;;;;;;;32.50;8.80;;;;;;;0.21;83.96;99791.81;106449;1273;24166;-55
2022/02/01 06:37:02;;;;;;;38.30;10.40;;;;;;;0.21;84.20;99804.42;106266;1273;24586;-55
2022/02/01 06:39:31;;;;;;;36.50;10.40;;;;;;;0.22;84.27;99807.48;106415;1273;22634;-56
2022/02/01 06:42:00;;;;;;;38.20;11.20;;;;;;;0.24;84.31;99814.90;106184;1273;25339;-53
2022/02/01 06:44:28;;;;;;;45.80;13.10;;;;;;;0.26;84.43;99812.97;106302;1273;25441;-56
2022/02/01 06:46:57;;;;;;;51.70;16.30;;;;;;;0.28;84.46;99815.69;106272;1273;22562;-56
2022/02/01 06:49:25;;;;;;;49.50;16.40;;;;;;;0.29;84.39;99819.02;107088;1273;22534;-56
2022/02/01 06:51:54;;;;;;;47.00;15.60;;;;;;;0.30;84.42;99817.38;106333;1273;22557;-56
2022/02/01 06:54:22;;;;;;;44.50;16.30;;;;;;;0.31;84.49;99823.47;106566;1273;22554;-55
2022/02/01 06:56:51;;;;;;;45.60;14.40;;;;;;;0.32;84.59;99825.27;106344;1273;24295;-57
2022/02/01 06:59:21;;;;;;;45.30;13.50;;;;;;;0.32;84.46;99824.94;106354;1273;25657;-57
2022/02/01 07:01:50;;;;;;;41.90;13.80;;;;;;;0.31;84.46;99828.02;106298;1273;25326;-57
2022/02/01 07:04:21;;;;;;;43.00;12.20;;;;;;;0.31;84.49;99823.80;106316;1273;23124;-58
2022/02/01 07:06:50;;;;;;;39.30;12.20;;;;;;;0.32;84.59;99825.34;106313;1273;22566;-57
2022/02/01 07:09:21;;;;;;;49.30;12.20;;;;;;;0.31;84.70;99816.80;106368;1273;22705;-55
2022/02/01 07:11:49;;;;;;;47.00;11.30;;;;;;;0.31;84.65;99809.11;106398;1273;22592;-56
2022/02/01 07:14:18;;;;;;;39.90;8.90;;;;;;;0.30;84.76;99802.86;106157;1273;24868;-58
2022/02/01 07:16:46;;;;;;;33.20;8.70;;;;;;;0.28;84.70;99800.09;106181;1273;22562;-57
2022/02/01 07:19:16;;;;;;;30.70;9.30;;;;;;;0.25;84.65;99800.05;106421;1273;22685;-54
2022/02/01 07:21:44;;;;;;;38.10;10.20;;;;;;;0.25;84.67;99806.80;106388;1273;22591;-56
2022/02/01 07:24:16;;;;;;;32.80;9.40;;;;;;;0.23;84.64;99813.03;106345;1273;25510;-58
2022/02/01 07:26:54;;;;;;;35.80;9.40;;;;;;;0.23;84.83;99812.65;106429;1273;22543;-57
2022/02/01 07:29:23;;;;;;;40.40;9.30;;;;;;;0.22;84.88;99815.48;106414;1273;22728;-58
2022/02/01 07:31:51;;;;;;;37.80;9.10;;;;;;;0.21;84.76;99816.11;106286;1273;24222;-57
2022/02/01 07:34:20;;;;;;;38.90;7.90;;;;;;;0.20;84.86;99814.73;106271;1273;22562;-56
2022/02/01 07:36:49;;;;;;;31.60;7.30;;;;;;;0.19;84.89;99812.00;106353;1273;22541;-54
2022/02/01 07:39:18;;;;;;;27.60;6.10;;;;;;;0.19;84.75;99817.96;106293;1273;25429;-55
2022/02/01 07:41:46;;;;;;;30.90;6.50;;;;;;;0.19;84.82;99825.11;106452;1273;22538;-57
2022/02/01 07:44:15;;;;;;;31.40;7.20;;;;;;;0.18;84.70;99822.92;106415;1272;24297;-56
2022/02/01 07:46:44;;;;;;;27.40;6.40;;;;;;;0.16;84.82;99821.70;106372;1273;22541;-54
2022/02/01 07:49:17;;;;;;;22.30;5.30;;;;;;;0.14;84.93;99818.61;106569;1273;24281;-58
2022/02/01 07:51:45;;;;;;;26.90;6.40;;;;;;;0.13;85.12;99814.93;106358;1273;22753;-55
2022/02/01 07:54:13;;;;;;;24.60;6.50;;;;;;;0.14;85.34;99816.65;106253;1273;22538;-56
2022/02/01 07:56:42;;;;;;;29.70;7.70;;;;;;;0.14;85.37;99820.56;106283;1273;22542;-53
2022/02/01 07:59:10;;;;;;;28.90;8.50;;;;;;;0.16;85.54;99821.22;106345;1273;25412;-54
2022/02/01 08:01:38;;;;;;;36.60;10.40;;;;;;;0.18;85.53;99815.55;106274;1273;23016;-56
2022/02/01 08:04:07;;;;;;;34.90;10.40;;;;;;;0.21;85.74;99809.94;106260;1273;22713;-57
2022/02/01 08:06:36;;;;;;;31.70;10.50;;;;;;;0.23;85.77;99804.71;106370;1273;24104;-56
2022/02/01 08:09:14;;;;;;;35.50;9.90;;;;;;;0.26;85.83;99806.01;106407;1273;22541;-56
2022/02/01 08:11:43;;;;;;;42.70;10.50;;;;;;;0.29;85.80;99805.54;106253;1273;22579;-57
2022/02/01 08:17:10;;;;;;;34.70;10.00;;;;;;;0.34;86.12;99799.88;105890;1276;22825;-53
2022/02/01 08:19:54;;;;;;;36.90;10.10;;;;;;;0.37;86.05;99794.90;106034;1276;22485;-54
2022/02/01 08:22:33;;;;;;;39.90;11.00;;;;;;;0.39;86.06;99790.39;105911;1276;22723;-53
2022/02/01 08:25:01;;;;;;;28.70;7.90;;;;;;;0.42;86.19;99785.85;105974;1276;24270;-56
2022/02/01 08:27:31;;;;;;;43.50;11.90;;;;;;;0.44;86.23;99789.27;106055;1276;22667;-58
2022/02/01 08:30:00;;;;;;;27.00;6.50;;;;;;;0.48;86.13;99786.44;106270;1276;23337;-59
2022/02/01 08:32:30;;;;;;;33.40;7.70;;;;;;;0.49;86.26;99780.84;106111;1276;24294;-57
2022/02/01 08:34:59;;;;;;;41.70;9.10;;;;;;;0.51;86.33;99784.27;105960;1276;22610;-55
2022/02/01 08:37:28;;;;;;;23.10;7.40;;;;;;;0.53;86.31;99790.73;105858;1276;22547;-54
2022/02/01 08:39:57;;;;;;;30.50;7.30;;;;;;;0.54;86.33;99784.02;105978;1276;22547;-56
2022/02/01 08:42:26;;;;;;;30.40;6.70;;;;;;;0.55;86.35;99781.27;106263;1276;24148;-58
2022/02/01 08:44:54;;;;;;;36.80;7.40;;;;;;;0.57;86.19;99779.52;106068;1276;22551;-57
2022/02/01 08:47:23;;;;;;;45.90;10.50;;;;;;;0.58;86.23;99775.18;105993;1276;22535;-57
2022/02/01 08:49:54;;;;;;;34.30;6.50;;;;;;;0.60;86.16;99775.84;105915;1276;24238;-57
2022/02/01 08:52:29;;;;;;;37.90;7.60;;;;;;;0.63;86.13;99777.20;105975;1276;25329;-57
2022/02/01 08:55:01;;;;;;;32.20;7.80;;;;;;;0.67;86.10;99771.77;106339;1274;22543;-58
2022/02/01 08:57:31;;;;;;;27.40;6.00;;;;;;;0.73;85.90;99773.77;106537;1273;22483;-57
2022/02/01 09:00:05;;;;;;;33.20;7.70;;;;;;;0.80;85.94;99765.00;106351;1273;22556;-57
2022/02/01 09:02:34;;;;;;;33.20;7.80;;;;;;;0.88;85.96;99763.42;106456;1273;25541;-56
2022/02/01 09:05:08;;;;;;;28.80;6.90;;;;;;;0.96;85.91;99763.02;106358;1273;24413;-57
2022/02/01 09:07:36;;;;;;;31.40;7.50;;;;;;;1.02;85.86;99762.95;106522;1273;22563;-57
2022/02/01 09:10:06;;;;;;;26.60;6.50;;;;;;;1.07;85.62;99760.08;106394;1273;22563;-58
2022/02/01 09:12:35;;;;;;;25.80;6.10;;;;;;;1.13;85.48;99761.61;106698;1273;24255;-58
2022/02/01 09:15:04;;;;;;;36.60;6.70;;;;;;;1.17;85.47;99757.57;106309;1273;25461;-57
2022/02/01 09:17:33;;;;;;;26.70;8.00;;;;;;;1.22;85.37;99752.04;106347;1273;24193;-58
2022/02/01 09:20:01;;;;;;;25.30;5.60;;;;;;;1.27;85.32;99750.90;106296;1273;22537;-56
2022/02/01 09:22:31;;;;;;;30.30;5.90;;;;;;;1.31;85.11;99749.25;106418;1273;22544;-58
2022/02/01 09:24:59;;;;;;;23.60;5.60;;;;;;;1.35;84.99;99747.65;106427;1273;25605;-57
2022/02/01 09:27:27;;;;;;;27.20;7.60;;;;;;;1.40;84.98;99748.41;106346;1273;22721;-58
2022/02/01 09:29:56;;;;;;;22.50;6.60;;;;;;;1.44;85.04;99745.72;106304;1273;26455;-57
2022/02/01 09:32:25;;;;;;;24.70;5.80;;;;;;;1.48;84.97;99740.83;106048;1273;395338;-58
2022/02/01 09:34:53;;;;;;;25.00;5.40;;;;;;;1.51;84.63;99737.61;106531;1273;25383;-57
2022/02/01 09:37:23;;;;;;;25.80;8.00;;;;;;;1.52;84.62;99736.95;106411;1273;25273;-57
2022/02/01 09:39:52;;;;;;;22.20;5.90;;;;;;;1.54;84.34;99740.04;106378;1273;25638;-56
2022/02/01 09:42:24;;;;;;;18.80;5.20;;;;;;;1.54;84.07;99740.59;106308;1273;22805;-54
2022/02/01 09:44:53;;;;;;;26.10;5.20;;;;;;;1.57;83.99;99741.02;106400;1273;22537;-57
2022/02/01 09:47:33;;;;;;;24.80;4.70;;;;;;;1.58;83.87;99738.69;106403;1273;22826;-57
2022/02/01 09:50:04;;;;;;;24.90;4.90;;;;;;;1.58;83.38;99736.88;106420;1273;22562;-56
2022/02/01 09:52:35;;;;;;;22.90;4.60;;;;;;;1.59;83.59;99736.77;106691;1273;24401;-54
2022/02/01 09:55:07;;;;;;;26.10;6.30;;;;;;;1.62;83.50;99732.94;106376;1273;25547;-59
2022/02/01 09:57:36;;;;;;;15.20;4.30;;;;;;;1.64;83.50;99727.38;106447;1273;22540;-56
2022/02/01 10:00:13;;;;;;;24.90;6.40;;;;;;;1.65;83.39;99722.78;106379;1273;25683;-56
2022/02/01 10:02:46;;;;;;;23.70;5.60;;;;;;;1.66;83.07;99716.80;106307;1271;23126;-56
2022/02/01 10:05:17;;;;;;;22.90;5.60;;;;;;;1.66;83.02;99722.52;106468;1273;24205;-57
2022/02/01 10:07:51;;;;;;;20.70;4.70;;;;;;;1.67;82.89;99718.36;106379;1273;22563;-54
2022/02/01 10:10:20;;;;;;;22.30;5.90;;;;;;;1.66;82.80;99717.73;106365;1273;24286;-56
2022/02/01 10:13:00;;;;;;;26.00;7.20;;;;;;;1.66;82.86;99715.53;106393;1273;24420;-54
2022/02/01 10:15:33;;;;;;;18.80;5.20;;;;;;;1.66;82.84;99712.23;106343;1273;24231;-57
2022/02/01 10:18:04;;;;;;;18.10;4.30;;;;;;;1.66;82.90;99711.52;106137;1273;22594;-58
2022/02/01 10:20:39;;;;;;;18.40;4.60;;;;;;;1.66;82.71;99708.23;106341;1272;22534;-56
2022/02/01 10:23:26;;;;;;;22.70;4.50;;;;;;;1.67;82.90;99708.61;106372;1273;24271;-57
2022/02/01 10:26:02;;;;;;;21.50;5.80;;;;;;;1.68;83.07;99702.23;106418;1273;22599;-55
2022/02/01 10:28:48;;;;;;;18.50;4.70;;;;;;;1.69;83.19;99703.29;106314;1273;22731;-57
2022/02/01 10:31:23;;;;;;;16.30;5.10;;;;;;;1.68;83.21;99701.84;106251;1273;22776;-57
2022/02/01 10:34:02;;;;;;;20.60;5.30;;;;;;;1.67;83.46;99699.79;106402;1273;23235;-57
2022/02/01 10:36:40;;;;;;;19.70;4.50;;;;;;;1.65;83.49;99693.67;106248;1273;22540;-57
2022/02/01 10:39:20;;;;;;;17.60;3.70;;;;;;;1.65;83.57;99685.91;106491;1273;25992;-56
2022/02/01 10:42:01;;;;;;;18.30;4.70;;;;;;;1.64;83.63;99677.46;106322;1273;22564;-57
2022/02/01 10:44:42;;;;;;;18.50;4.80;;;;;;;1.63;83.81;99675.52;106444;1273;22571;-57
2022/02/01 10:47:12;;;;;;;16.30;4.30;;;;;;;1.62;84.11;99674.05;106361;1273;22567;-58
2022/02/01 10:49:41;;;;;;;21.70;5.10;;;;;;;1.62;83.90;99669.73;106254;1273;22561;-57
2022/02/01 10:52:12;;;;;;;19.40;5.50;;;;;;;1.63;84.18;99666.25;106381;1273;22591;-55
2022/02/01 10:54:42;;;;;;;24.30;4.10;;;;;;;1.64;84.33;99665.36;106400;1273;24759;-56
2022/02/01 10:57:11;;;;;;;;;;;;;;;1.63;84.22;99657.11;106484;1273;22675;-56
2022/02/01 10:59:40;;;;;;;20.50;4.80;;;;;;;1.63;84.45;99655.15;106481;1273;25882;-57
2022/02/01 11:02:10;;;;;;;21.30;4.90;;;;;;;1.62;84.38;99645.84;106462;1273;22731;-58
2022/02/01 11:04:41;;;;;;;14.90;4.40;;;;;;;1.63;84.39;99644.24;106200;1273;28215;-57
2022/02/01 11:07:10;;;;;;;15.60;3.70;;;;;;;1.63;84.46;99634.55;106016;1273;24317;-59
2022/02/01 11:09:38;;;;;;;10.90;2.40;;;;;;;1.66;84.46;99630.71;106003;1273;24243;-57
2022/02/01 11:12:12;;;;;;;16.30;3.90;;;;;;;1.68;84.29;99627.28;106236;1271;25416;-57
2022/02/01 11:14:43;;;;;;;15.80;4.20;;;;;;;1.70;84.42;99624.31;106334;1271;22629;-55
2022/02/01 11:17:14;;;;;;;15.80;4.00;;;;;;;1.73;84.26;99621.89;106250;1271;22580;-57
2022/02/01 11:19:51;;;;;;;15.20;3.20;;;;;;;1.77;84.20;99620.05;106414;1273;22819;-54
2022/02/01 11:22:23;;;;;;;13.30;2.70;;;;;;;1.80;84.18;99612.17;106385;1273;25380;-56
2022/02/01 11:24:54;;;;;;;14.50;2.40;;;;;;;1.81;84.07;99611.92;106464;1273;22567;-57
2022/02/01 11:27:37;;;;;;;12.50;2.80;;;;;;;1.81;84.13;99609.09;106379;1273;22554;-56
2022/02/01 11:30:12;;;;;;;12.40;3.00;;;;;;;1.81;84.20;99615.70;106408;1273;25384;-57
2022/02/01 11:32:49;;;;;;;10.90;2.70;;;;;;;1.81;84.25;99618.59;106291;1273;24337;-56
2022/02/01 11:35:25;;;;;;;14.10;3.50;;;;;;;1.82;83.95;99619.02;106275;1273;22523;-56
2022/02/01 11:38:00;;;;;;;10.80;2.80;;;;;;;1.82;83.53;99619.91;106423;1272;24015;-55
2022/02/01 11:40:35;;;;;;;14.40;2.90;;;;;;;1.82;83.35;99616.13;106459;1273;24333;-57
2022/02/01 11:43:09;;;;;;;10.80;2.50;;;;;;;1.84;83.18;99607.11;106402;1272;22554;-58
2022/02/01 11:45:40;;;;;;;13.60;2.80;;;;;;;1.89;83.22;99608.93;106357;1273;22649;-57
2022/02/01 11:48:19;;;;;;;19.80;4.00;;;;;;;1.95;83.13;99605.55;106346;1273;22554;-55
2022/02/01 11:50:50;;;;;;;15.50;4.30;;;;;;;2.00;82.76;99600.07;106410;1271;25485;-56
2022/02/01 11:53:24;;;;;;;17.00;5.10;;;;;;;2.04;82.48;99595.70;106465;1273;24312;-57
2022/02/01 11:55:54;;;;;;;17.20;3.60;;;;;;;2.08;81.92;99596.30;106390;1273;24280;-58
2022/02/01 11:58:31;;;;;;;17.60;4.30;;;;;;;2.11;81.45;99591.33;106420;1273;22610;-57
2022/02/01 12:01:00;;;;;;;18.30;4.60;;;;;;;2.12;81.50;99585.63;106391;1273;24269;-57
2022/02/01 12:03:34;;;;;;;14.50;3.80;;;;;;;2.14;81.22;99580.38;106634;1273;22821;-57
2022/02/01 12:06:08;;;;;;;20.50;4.30;;;;;;;2.14;81.06;99580.38;106431;1273;22718;-57
2022/02/01 12:08:42;;;;;;;19.90;3.40;;;;;;;2.14;81.04;99574.55;106410;1271;25580;-58
2022/02/01 12:11:15;;;;;;;16.00;3.60;;;;;;;2.14;80.88;99576.20;106319;1273;22652;-58
2022/02/01 12:13:48;;;;;;;18.00;3.40;;;;;;;2.14;80.61;99574.70;106399;1273;22603;-57
2022/02/01 12:16:19;;;;;;;19.70;4.40;;;;;;;2.15;80.89;99573.81;106232;1273;23027;-57
2022/02/01 12:19:00;;;;;;;20.80;4.40;;;;;;;2.16;80.98;99567.50;106426;1273;22492;-57
2022/02/01 12:21:29;;;;;;;;;;;;;;;2.18;81.13;99567.66;106338;1273;25368;-57
2022/02/01 12:24:00;;;;;;;18.50;4.50;;;;;;;2.20;81.02;99565.80;106265;1274;22556;-56
2022/02/01 12:26:32;;;;;;;26.60;4.60;;;;;;;2.21;80.89;99562.06;106279;1273;24368;-57
2022/02/01 12:29:06;;;;;;;19.80;3.10;;;;;;;2.22;80.85;99559.36;106311;1273;22627;-56
2022/02/01 12:31:38;;;;;;;27.20;4.40;;;;;;;2.24;80.71;99556.70;106403;1273;22542;-58
2022/02/01 12:34:09;;;;;;;22.40;4.50;;;;;;;2.26;80.86;99557.59;106418;1273;22559;-58
2022/02/01 12:36:40;;;;;;;14.80;3.50;;;;;;;2.29;81.09;99552.45;106493;1274;23214;-55